Time;durP1;ratioP1;P1;durP2;ratioP2;P2;SDS_P1;SDS_P2;PMS_P1;PMS_P2;Temp;Humidity;BMP_temperature;BMP_pressure;BME280_temperature;BME280_humidity;BME280_pressure;Samples;Min_cycle;Max_cycle;Signal;HPM_P1;HPM_P2
2023/12/31 00:01:52;;;;;;;10.27;4.63;;;;;;;;;;5071666;28;20774;-55
2023/12/31 00:04:19;;;;;;;10.37;4.30;;;;;;;;;;5074493;28;20176;-55
2023/12/31 00:06:45;;;;;;;11.80;4.50;;;;;;;;;;5075737;28;20183;-55
2023/12/31 00:09:11;;;;;;;12.40;4.13;;;;;;;;;;5075883;28;20173;-54
2023/12/31 00:11:37;;;;;;;11.50;4.20;;;;;;;;;;5076783;28;20168;-55
2023/12/31 00:14:04;;;;;;;10.60;4.77;;;;;;;;;;5076587;28;20185;-56
2023/12/31 00:16:32;;;;;;;14.17;4.80;;;;;;;;;;5076469;28;20563;-56
2023/12/31 00:19:04;;;;;;;11.90;3.97;;;;;;;;;;5075241;28;20215;-54
2023/12/31 00:21:30;;;;;;;9.60;4.50;;;;;;;;;;5076095;28;20177;-51
2023/12/31 00:23:56;;;;;;;14.60;4.93;;;;;;;;;;5076211;28;20271;-55
2023/12/31 00:26:22;;;;;;;8.87;4.33;;;;;;;;;;5074517;28;20251;-55
2023/12/31 00:28:49;;;;;;;8.70;4.50;;;;;;;;;;5074911;28;20184;-54
2023/12/31 00:31:18;;;;;;;12.30;4.90;;;;;;;;;;5075697;28;20173;-56
2023/12/31 00:33:44;;;;;;;17.00;4.80;;;;;;;;;;5075425;28;20202;-56
2023/12/31 00:36:10;;;;;;;7.37;4.20;;;;;;;;;;5076075;28;20181;-52
2023/12/31 00:38:37;;;;;;;6.23;4.10;;;;;;;;;;5075342;28;20200;-57
2023/12/31 00:41:04;;;;;;;10.67;4.40;;;;;;;;;;5075497;28;20180;-55
2023/12/31 00:43:30;;;;;;;9.23;4.27;;;;;;;;;;5075619;28;20177;-56
2023/12/31 00:45:56;;;;;;;7.17;3.63;;;;;;;;;;5076556;28;20251;-54
2023/12/31 00:48:22;;;;;;;8.37;3.93;;;;;;;;;;5075928;28;20168;-54
2023/12/31 00:50:50;;;;;;;12.27;4.47;;;;;;;;;;5076836;28;20173;-53
2023/12/31 00:53:16;;;;;;;14.13;4.63;;;;;;;;;;5076799;28;20199;-56
2023/12/31 00:55:43;;;;;;;8.60;4.13;;;;;;;;;;5076109;28;20271;-56
2023/12/31 00:58:11;;;;;;;11.50;5.03;;;;;;;;;;5075636;28;20608;-53
2023/12/31 01:00:38;;;;;;;9.67;4.10;;;;;;;;;;5076958;28;20563;-56
2023/12/31 01:03:05;;;;;;;10.30;3.70;;;;;;;;;;5076224;28;20169;-56
2023/12/31 01:05:32;;;;;;;8.17;4.30;;;;;;;;;;5076302;28;20248;-56
2023/12/31 01:07:59;;;;;;;12.37;4.17;;;;;;;;;;5076100;28;20183;-52
2023/12/31 01:10:25;;;;;;;9.60;3.97;;;;;;;;;;5076117;28;20169;-53
2023/12/31 01:12:51;;;;;;;10.97;4.00;;;;;;;;;;5077162;28;20188;-54
2023/12/31 01:15:17;;;;;;;5.70;3.60;;;;;;;;;;5076747;28;20242;-55
2023/12/31 01:17:43;;;;;;;13.53;3.90;;;;;;;;;;5076311;28;20204;-53
2023/12/31 01:20:10;;;;;;;4.47;3.73;;;;;;;;;;5076852;28;20169;-54
2023/12/31 01:22:36;;;;;;;6.33;3.83;;;;;;;;;;5076040;28;20180;-51
2023/12/31 01:25:04;;;;;;;9.20;3.90;;;;;;;;;;5075650;28;20168;-56
2023/12/31 01:27:31;;;;;;;7.40;3.80;;;;;;;;;;5075241;28;20173;-56
2023/12/31 01:29:58;;;;;;;6.27;3.90;;;;;;;;;;5075419;28;20592;-51
2023/12/31 01:32:25;;;;;;;6.17;3.77;;;;;;;;;;5075592;28;20177;-55
2023/12/31 01:34:54;;;;;;;6.40;3.30;;;;;;;;;;5073872;28;20181;-52
2023/12/31 01:37:21;;;;;;;5.63;3.30;;;;;;;;;;5075358;28;20333;-55
2023/12/31 01:39:47;;;;;;;11.37;3.97;;;;;;;;;;5076027;28;20271;-56
2023/12/31 01:42:15;;;;;;;8.23;3.83;;;;;;;;;;5076448;28;20571;-53
2023/12/31 01:44:42;;;;;;;6.47;3.20;;;;;;;;;;5076436;28;20176;-54
2023/12/31 01:47:09;;;;;;;7.07;2.87;;;;;;;;;;5075842;28;20224;-55
2023/12/31 01:49:35;;;;;;;6.93;2.87;;;;;;;;;;5076396;28;20248;-53
2023/12/31 01:52:02;;;;;;;7.07;3.33;;;;;;;;;;5076094;28;20176;-55
2023/12/31 01:54:28;;;;;;;11.03;3.07;;;;;;;;;;5075027;28;20202;-56
2023/12/31 01:56:57;;;;;;;6.57;3.17;;;;;;;;;;5075309;28;20743;-55
2023/12/31 01:59:24;;;;;;;5.63;3.00;;;;;;;;;;5058960;28;20299;-57
2023/12/31 02:01:51;;;;;;;9.20;2.73;;;;;;;;;;5075982;28;20194;-53
2023/12/31 02:04:20;;;;;;;5.73;2.40;;;;;;;;;;5076126;28;20259;-51
2023/12/31 02:06:47;;;;;;;5.17;2.57;;;;;;;;;;5075213;28;20267;-55
2023/12/31 02:09:14;;;;;;;6.37;2.80;;;;;;;;;;5075222;28;20183;-53
2023/12/31 02:11:42;;;;;;;7.07;3.53;;;;;;;;;;5076526;28;20191;-54
2023/12/31 02:14:08;;;;;;;13.13;3.50;;;;;;;;;;5075399;28;20198;-53
2023/12/31 02:16:35;;;;;;;8.23;2.97;;;;;;;;;;5077468;28;20234;-53
2023/12/31 02:19:01;;;;;;;5.87;2.83;;;;;;;;;;5074974;28;20623;-56
2023/12/31 02:21:28;;;;;;;5.77;2.60;;;;;;;;;;5075461;28;20173;-55
2023/12/31 02:23:54;;;;;;;6.37;2.40;;;;;;;;;;5075705;28;20168;-55
2023/12/31 02:26:21;;;;;;;5.30;2.30;;;;;;;;;;5074982;28;20267;-54
2023/12/31 02:28:47;;;;;;;6.77;2.70;;;;;;;;;;5075470;28;20180;-56
2023/12/31 02:31:13;;;;;;;5.83;2.47;;;;;;;;;;5073964;28;20261;-55
2023/12/31 02:33:39;;;;;;;7.03;2.17;;;;;;;;;;5072979;28;20177;-55
2023/12/31 02:36:06;;;;;;;8.70;2.27;;;;;;;;;;5073133;28;20187;-55
2023/12/31 02:38:33;;;;;;;4.23;2.47;;;;;;;;;;5074174;28;20204;-52
2023/12/31 02:40:59;;;;;;;6.27;2.40;;;;;;;;;;5074220;28;20513;-56
2023/12/31 02:43:25;;;;;;;4.43;2.17;;;;;;;;;;5075775;28;20604;-55
2023/12/31 02:45:51;;;;;;;8.33;2.47;;;;;;;;;;5075350;28;20173;-56
2023/12/31 02:48:18;;;;;;;6.63;1.80;;;;;;;;;;5074415;28;20545;-54
2023/12/31 02:50:43;;;;;;;6.13;2.60;;;;;;;;;;5075671;28;20258;-52
2023/12/31 02:53:09;;;;;;;5.40;2.63;;;;;;;;;;5074941;28;20233;-54
2023/12/31 02:55:35;;;;;;;8.63;2.20;;;;;;;;;;5075732;28;20184;-51
2023/12/31 02:58:02;;;;;;;6.80;2.33;;;;;;;;;;5075564;28;20254;-54
2023/12/31 03:00:33;;;;;;;3.57;2.03;;;;;;;;;;5075852;28;20200;-50
2023/12/31 03:02:59;;;;;;;7.57;2.10;;;;;;;;;;5075808;28;20210;-51
2023/12/31 03:05:25;;;;;;;5.57;1.77;;;;;;;;;;5075710;28;20208;-49
2023/12/31 03:07:51;;;;;;;6.97;1.97;;;;;;;;;;5076210;28;20185;-50
2023/12/31 03:10:17;;;;;;;4.23;2.13;;;;;;;;;;5075433;28;20173;-54
2023/12/31 03:12:43;;;;;;;5.73;2.33;;;;;;;;;;5075016;28;20177;-55
2023/12/31 03:15:09;;;;;;;4.53;1.93;;;;;;;;;;5072819;28;20180;-56
2023/12/31 03:17:35;;;;;;;4.53;1.87;;;;;;;;;;5074632;28;20616;-52
2023/12/31 03:20:02;;;;;;;4.90;2.03;;;;;;;;;;5075574;28;20202;-51
2023/12/31 03:22:28;;;;;;;6.13;2.10;;;;;;;;;;5075778;28;20173;-54
2023/12/31 03:24:54;;;;;;;9.53;2.40;;;;;;;;;;5076073;28;20235;-55
2023/12/31 03:27:20;;;;;;;5.57;1.77;;;;;;;;;;5076180;28;20169;-54
2023/12/31 03:29:46;;;;;;;5.83;2.20;;;;;;;;;;5075727;28;20173;-54
2023/12/31 03:32:12;;;;;;;4.77;2.17;;;;;;;;;;5076029;28;20181;-55
2023/12/31 03:34:38;;;;;;;4.60;1.70;;;;;;;;;;5075810;28;20182;-54
2023/12/31 03:37:04;;;;;;;6.60;1.70;;;;;;;;;;5075556;28;20173;-55
2023/12/31 03:39:30;;;;;;;8.27;2.13;;;;;;;;;;5074781;28;20208;-53
2023/12/31 03:41:56;;;;;;;5.00;1.90;;;;;;;;;;5073944;28;20173;-56
2023/12/31 03:44:22;;;;;;;7.60;2.03;;;;;;;;;;5074202;28;20241;-56
2023/12/31 03:46:48;;;;;;;3.20;1.40;;;;;;;;;;5075765;28;20177;-54
2023/12/31 03:49:14;;;;;;;3.33;1.60;;;;;;;;;;5074190;28;20173;-53
2023/12/31 03:51:40;;;;;;;2.83;1.40;;;;;;;;;;5074857;28;20184;-54
2023/12/31 03:54:07;;;;;;;5.33;1.90;;;;;;;;;;5074630;28;20305;-53
2023/12/31 03:56:33;;;;;;;6.50;1.63;;;;;;;;;;5074579;28;20599;-56
2023/12/31 03:59:00;;;;;;;6.43;2.03;;;;;;;;;;5075083;28;20727;-54
2023/12/31 04:01:26;;;;;;;4.27;1.90;;;;;;;;;;5077191;28;20287;-55
2023/12/31 04:03:52;;;;;;;2.63;1.57;;;;;;;;;;5079886;28;20234;-55
2023/12/31 04:09:21;;;;;;;4.97;1.47;;;;;;;;;;5079949;28;20176;-51
2023/12/31 04:11:47;;;;;;;4.37;1.50;;;;;;;;;;5079609;28;20185;-55
2023/12/31 04:14:13;;;;;;;8.57;2.53;;;;;;;;;;5078711;28;20176;-54
2023/12/31 04:16:39;;;;;;;7.67;1.90;;;;;;;;;;5077971;28;20622;-56
2023/12/31 04:19:05;;;;;;;6.00;2.07;;;;;;;;;;5077788;28;20200;-55
2023/12/31 04:21:31;;;;;;;6.33;1.80;;;;;;;;;;5078640;28;20185;-53
2023/12/31 04:23:57;;;;;;;5.63;1.20;;;;;;;;;;5077996;28;20180;-52
2023/12/31 04:26:23;;;;;;;5.20;1.40;;;;;;;;;;5079144;28;20165;-55
2023/12/31 04:28:49;;;;;;;4.53;1.50;;;;;;;;;;5077875;28;20216;-53
2023/12/31 04:31:15;;;;;;;5.10;1.67;;;;;;;;;;5077896;28;20270;-56
2023/12/31 04:33:41;;;;;;;5.93;1.60;;;;;;;;;;5077489;28;20187;-56
2023/12/31 04:36:07;;;;;;;6.37;2.13;;;;;;;;;;5077947;28;20177;-50
2023/12/31 04:38:33;;;;;;;3.57;1.80;;;;;;;;;;5076562;28;20216;-54
2023/12/31 04:40:59;;;;;;;3.07;1.63;;;;;;;;;;5076957;28;20169;-54
2023/12/31 04:43:25;;;;;;;3.00;1.43;;;;;;;;;;5077061;28;20256;-52
2023/12/31 04:45:51;;;;;;;3.00;1.60;;;;;;;;;;5076778;28;20515;-55
2023/12/31 04:48:17;;;;;;;5.37;1.93;;;;;;;;;;5076711;28;20611;-55
2023/12/31 04:50:43;;;;;;;4.23;1.87;;;;;;;;;;5076702;28;20204;-55
2023/12/31 04:53:09;;;;;;;1.97;1.23;;;;;;;;;;5077250;28;20223;-51
2023/12/31 04:55:35;;;;;;;4.73;1.63;;;;;;;;;;5077142;28;20176;-55
2023/12/31 04:58:01;;;;;;;5.47;1.70;;;;;;;;;;5076125;28;20501;-55
2023/12/31 05:00:27;;;;;;;4.27;1.63;;;;;;;;;;5077038;28;20187;-55
2023/12/31 05:02:52;;;;;;;3.90;1.70;;;;;;;;;;5076884;28;20173;-54
2023/12/31 05:05:19;;;;;;;6.33;1.77;;;;;;;;;;5076925;28;20169;-56
2023/12/31 05:07:45;;;;;;;4.13;1.43;;;;;;;;;;5076669;28;20172;-51
2023/12/31 05:10:11;;;;;;;7.40;1.90;;;;;;;;;;5076273;28;20183;-55
2023/12/31 05:12:37;;;;;;;3.73;1.47;;;;;;;;;;5077100;28;20184;-53
2023/12/31 05:15:03;;;;;;;3.70;1.43;;;;;;;;;;5076949;28;20181;-53
2023/12/31 05:17:29;;;;;;;3.10;1.30;;;;;;;;;;5077237;28;20259;-54
2023/12/31 05:19:55;;;;;;;5.43;1.63;;;;;;;;;;5076911;28;20381;-51
2023/12/31 05:22:21;;;;;;;4.30;1.40;;;;;;;;;;5077360;28;20246;-55
2023/12/31 05:24:47;;;;;;;2.80;1.43;;;;;;;;;;5076687;28;20642;-51
2023/12/31 05:27:13;;;;;;;2.97;1.33;;;;;;;;;;5076257;28;20226;-52
2023/12/31 05:29:39;;;;;;;4.37;1.30;;;;;;;;;;5075939;28;20483;-52
2023/12/31 05:32:05;;;;;;;3.77;1.30;;;;;;;;;;5076053;28;20556;-54
2023/12/31 05:34:31;;;;;;;6.60;1.83;;;;;;;;;;5075942;28;20261;-54
2023/12/31 05:36:57;;;;;;;2.60;1.30;;;;;;;;;;5075166;28;20207;-53
2023/12/31 05:39:23;;;;;;;5.20;1.80;;;;;;;;;;5070277;28;20822;-54
2023/12/31 05:41:49;;;;;;;5.00;1.43;;;;;;;;;;5071028;28;20441;-49
2023/12/31 05:44:15;;;;;;;2.57;1.57;;;;;;;;;;5072072;28;20192;-53
2023/12/31 05:46:41;;;;;;;2.07;1.50;;;;;;;;;;5071803;28;20171;-50
2023/12/31 05:49:07;;;;;;;2.67;1.33;;;;;;;;;;5071500;28;20419;-53
2023/12/31 05:51:34;;;;;;;4.77;1.47;;;;;;;;;;5071749;28;20228;-54
2023/12/31 05:53:59;;;;;;;2.87;1.50;;;;;;;;;;5071773;28;20187;-52
2023/12/31 05:56:25;;;;;;;2.93;1.47;;;;;;;;;;5070825;28;20194;-54
2023/12/31 05:58:51;;;;;;;4.57;1.73;;;;;;;;;;5070303;28;20224;-53
2023/12/31 06:01:17;;;;;;;4.10;1.80;;;;;;;;;;5070205;28;20203;-51
2023/12/31 06:03:43;;;;;;;3.80;1.90;;;;;;;;;;5070523;28;20314;-56
2023/12/31 06:06:09;;;;;;;4.87;1.73;;;;;;;;;;5071293;28;20200;-52
2023/12/31 06:08:35;;;;;;;4.87;1.60;;;;;;;;;;5070094;28;20551;-53
2023/12/31 06:11:01;;;;;;;5.87;2.03;;;;;;;;;;5071308;28;20253;-54
2023/12/31 06:13:27;;;;;;;5.97;1.90;;;;;;;;;;5071641;28;20572;-52
2023/12/31 06:15:53;;;;;;;3.77;1.60;;;;;;;;;;5074378;28;20188;-51
2023/12/31 06:18:20;;;;;;;2.47;1.50;;;;;;;;;;5075165;28;20291;-55
2023/12/31 06:20:46;;;;;;;4.07;1.63;;;;;;;;;;5076297;28;20251;-55
2023/12/31 06:23:12;;;;;;;3.00;1.50;;;;;;;;;;5074648;28;20227;-55
2023/12/31 06:25:38;;;;;;;4.93;1.60;;;;;;;;;;5074885;28;20173;-53
2023/12/31 06:28:04;;;;;;;2.83;1.10;;;;;;;;;;5073932;28;20173;-54
2023/12/31 06:30:30;;;;;;;4.03;1.70;;;;;;;;;;5074225;28;20192;-49
2023/12/31 06:32:56;;;;;;;3.77;1.73;;;;;;;;;;5074673;28;20212;-52
2023/12/31 06:35:22;;;;;;;4.77;1.50;;;;;;;;;;5074558;28;20187;-56
2023/12/31 06:37:48;;;;;;;4.87;1.60;;;;;;;;;;5074681;28;20197;-55
2023/12/31 06:40:14;;;;;;;3.43;1.30;;;;;;;;;;5074435;28;20180;-53
2023/12/31 06:42:40;;;;;;;3.03;1.50;;;;;;;;;;5075075;28;20642;-53
2023/12/31 06:45:06;;;;;;;6.03;2.13;;;;;;;;;;5074607;28;20184;-52
2023/12/31 06:47:32;;;;;;;4.87;1.60;;;;;;;;;;5075515;28;20197;-54
2023/12/31 06:49:58;;;;;;;4.43;1.70;;;;;;;;;;5075083;28;20312;-53
2023/12/31 06:52:24;;;;;;;6.30;1.77;;;;;;;;;;5073969;28;20259;-53
2023/12/31 06:54:50;;;;;;;1.90;1.50;;;;;;;;;;5074790;28;20195;-54
2023/12/31 06:57:16;;;;;;;5.07;1.93;;;;;;;;;;5074775;28;20757;-54
2023/12/31 06:59:42;;;;;;;3.93;1.80;;;;;;;;;;5075361;28;20197;-54
2023/12/31 07:02:08;;;;;;;2.53;1.43;;;;;;;;;;5074946;28;20267;-52
2023/12/31 07:04:34;;;;;;;5.00;1.53;;;;;;;;;;5075007;28;20229;-52
2023/12/31 07:07:00;;;;;;;3.10;1.57;;;;;;;;;;5074848;28;20325;-53
2023/12/31 07:09:28;;;;;;;2.77;1.43;;;;;;;;;;5075899;28;20259;-53
2023/12/31 07:11:55;;;;;;;5.60;1.60;;;;;;;;;;5075736;28;20665;-55
2023/12/31 07:14:23;;;;;;;3.13;1.53;;;;;;;;;;5074475;28;20207;-54
2023/12/31 07:16:49;;;;;;;4.63;1.87;;;;;;;;;;5075508;28;20212;-54
2023/12/31 07:19:15;;;;;;;2.37;1.30;;;;;;;;;;5074701;28;20584;-53
2023/12/31 07:21:41;;;;;;;7.63;2.20;;;;;;;;;;5075372;28;20184;-55
2023/12/31 07:24:07;;;;;;;4.50;1.83;;;;;;;;;;5075416;28;20172;-55
2023/12/31 07:26:33;;;;;;;5.77;1.70;;;;;;;;;;5073059;28;20176;-54
2023/12/31 07:28:59;;;;;;;2.30;1.27;;;;;;;;;;5072663;28;20276;-51
2023/12/31 07:31:25;;;;;;;4.20;1.77;;;;;;;;;;5074257;28;20265;-54
2023/12/31 07:33:51;;;;;;;2.60;1.60;;;;;;;;;;5072977;28;20261;-54
2023/12/31 07:36:17;;;;;;;2.47;1.40;;;;;;;;;;5076605;28;20208;-54
2023/12/31 07:38:43;;;;;;;5.43;2.17;;;;;;;;;;5077667;28;20200;-53
2023/12/31 07:41:12;;;;;;;3.27;1.27;;;;;;;;;;5076933;28;20169;-54
2023/12/31 07:43:39;;;;;;;6.07;1.50;;;;;;;;;;5077596;28;20169;-55
2023/12/31 07:46:05;;;;;;;6.53;1.80;;;;;;;;;;5077102;28;20212;-54
2023/12/31 07:48:31;;;;;;;4.20;1.73;;;;;;;;;;5077407;28;20176;-56
2023/12/31 07:50:57;;;;;;;3.47;1.37;;;;;;;;;;5077099;28;20172;-54
2023/12/31 07:53:23;;;;;;;3.17;1.63;;;;;;;;;;5077449;28;20172;-55
2023/12/31 07:55:51;;;;;;;4.83;1.73;;;;;;;;;;5077281;28;20185;-53
2023/12/31 07:58:17;;;;;;;5.23;1.67;;;;;;;;;;5076793;28;20224;-50
2023/12/31 08:00:43;;;;;;;3.60;1.50;;;;;;;;;;5076931;28;20258;-55
2023/12/31 08:03:09;;;;;;;1.70;1.23;;;;;;;;;;5076918;28;20168;-52
2023/12/31 08:05:35;;;;;;;2.83;1.90;;;;;;;;;;5077414;28;20197;-56
2023/12/31 08:08:01;;;;;;;3.33;1.60;;;;;;;;;;5076683;28;20266;-49
2023/12/31 08:10:27;;;;;;;3.73;1.40;;;;;;;;;;5074915;28;20208;-53
2023/12/31 08:12:53;;;;;;;4.00;1.50;;;;;;;;;;5074764;28;20177;-55
2023/12/31 08:15:19;;;;;;;2.60;1.40;;;;;;;;;;5074665;28;20184;-55
2023/12/31 08:17:45;;;;;;;5.63;1.73;;;;;;;;;;5075779;28;20207;-56
2023/12/31 08:20:11;;;;;;;5.13;1.80;;;;;;;;;;5075985;28;20168;-55
2023/12/31 08:22:37;;;;;;;3.07;1.90;;;;;;;;;;5074554;28;20479;-55
2023/12/31 08:25:03;;;;;;;3.87;1.63;;;;;;;;;;5075383;28;20552;-52
2023/12/31 08:27:29;;;;;;;4.73;2.03;;;;;;;;;;5075638;28;20779;-52
2023/12/31 08:29:55;;;;;;;3.27;1.73;;;;;;;;;;5076139;28;20177;-54
2023/12/31 08:32:26;;;;;;;3.07;1.77;;;;;;;;;;5076759;28;20179;-51
2023/12/31 08:34:52;;;;;;;3.63;1.90;;;;;;;;;;5076303;28;20584;-54
2023/12/31 08:37:18;;;;;;;3.83;1.77;;;;;;;;;;5075288;28;20179;-55
2023/12/31 08:39:44;;;;;;;2.47;1.63;;;;;;;;;;5076192;28;20218;-53
2023/12/31 08:42:10;;;;;;;3.30;1.57;;;;;;;;;;5076173;28;20263;-56
2023/12/31 08:44:36;;;;;;;3.30;1.70;;;;;;;;;;5075754;28;20173;-54
2023/12/31 08:47:03;;;;;;;7.53;2.00;;;;;;;;;;5075760;28;20165;-54
2023/12/31 08:49:29;;;;;;;7.27;1.83;;;;;;;;;;5076836;28;20176;-55
2023/12/31 08:51:55;;;;;;;4.20;2.10;;;;;;;;;;5077642;28;20450;-54
2023/12/31 08:54:21;;;;;;;3.50;1.80;;;;;;;;;;5076892;28;20177;-55
2023/12/31 08:56:48;;;;;;;5.53;1.70;;;;;;;;;;5077004;28;20529;-54
2023/12/31 08:59:13;;;;;;;3.20;2.00;;;;;;;;;;5077207;28;20235;-53
2023/12/31 09:01:39;;;;;;;5.40;1.57;;;;;;;;;;5076805;28;20478;-54
2023/12/31 09:04:07;;;;;;;4.70;2.00;;;;;;;;;;5077694;28;20473;-54
2023/12/31 09:06:33;;;;;;;5.50;1.80;;;;;;;;;;5076853;28;20177;-53
2023/12/31 09:08:58;;;;;;;4.97;1.83;;;;;;;;;;5078460;28;20169;-55
2023/12/31 09:11:24;;;;;;;4.50;2.30;;;;;;;;;;5077159;28;20179;-55
2023/12/31 09:13:51;;;;;;;3.17;1.77;;;;;;;;;;5074531;28;20179;-50
2023/12/31 09:16:17;;;;;;;5.73;2.00;;;;;;;;;;5076202;28;20259;-52
2023/12/31 09:18:43;;;;;;;2.30;1.43;;;;;;;;;;5075657;28;20311;-56
2023/12/31 09:21:08;;;;;;;2.80;1.70;;;;;;;;;;5076189;28;20164;-54
2023/12/31 09:23:34;;;;;;;4.03;1.60;;;;;;;;;;5076093;28;20271;-52
2023/12/31 09:26:00;;;;;;;3.67;1.73;;;;;;;;;;5076563;28;20211;-55
2023/12/31 09:28:26;;;;;;;3.50;1.90;;;;;;;;;;5075520;28;20192;-52
2023/12/31 09:30:52;;;;;;;6.70;1.97;;;;;;;;;;5077182;28;20281;-55
2023/12/31 09:33:18;;;;;;;3.57;1.67;;;;;;;;;;5076412;28;20634;-56
2023/12/31 09:35:44;;;;;;;3.83;1.70;;;;;;;;;;5074787;28;20173;-51
2023/12/31 09:38:10;;;;;;;4.63;2.20;;;;;;;;;;5075361;28;20228;-51
2023/12/31 09:40:36;;;;;;;4.73;1.43;;;;;;;;;;5073591;28;20253;-53
2023/12/31 09:43:03;;;;;;;4.43;1.80;;;;;;;;;;5075047;28;20172;-54
2023/12/31 09:45:30;;;;;;;4.67;2.03;;;;;;;;;;5073392;28;20191;-53
2023/12/31 09:48:01;;;;;;;4.67;1.80;;;;;;;;;;5074920;28;20211;-54
2023/12/31 09:50:30;;;;;;;2.93;1.57;;;;;;;;;;5073832;28;20179;-53
2023/12/31 09:53:01;;;;;;;6.73;2.20;;;;;;;;;;5073040;28;20668;-55
2023/12/31 09:55:28;;;;;;;3.00;1.50;;;;;;;;;;5073437;28;20197;-54
2023/12/31 09:57:54;;;;;;;4.03;1.90;;;;;;;;;;5073335;28;20232;-54
2023/12/31 10:00:21;;;;;;;5.73;1.97;;;;;;;;;;5074456;28;20195;-54
2023/12/31 10:02:47;;;;;;;3.73;1.73;;;;;;;;;;5074132;28;20603;-54
2023/12/31 10:05:15;;;;;;;1.93;1.20;;;;;;;;;;5073012;28;20169;-52
2023/12/31 10:07:43;;;;;;;2.57;1.70;;;;;;;;;;5072266;28;20165;-53
2023/12/31 10:10:10;;;;;;;3.00;1.70;;;;;;;;;;5073340;28;20176;-55
2023/12/31 10:12:36;;;;;;;2.73;1.77;;;;;;;;;;5072308;28;20442;-54
2023/12/31 10:15:02;;;;;;;3.37;1.63;;;;;;;;;;5071160;28;20181;-51
2023/12/31 10:17:29;;;;;;;6.57;1.60;;;;;;;;;;5072314;28;20178;-51
2023/12/31 10:19:56;;;;;;;4.83;1.67;;;;;;;;;;5072362;28;20161;-53
2023/12/31 10:22:22;;;;;;;3.70;1.77;;;;;;;;;;5073342;28;20179;-56
2023/12/31 10:24:48;;;;;;;4.60;1.80;;;;;;;;;;5072954;28;20621;-55
2023/12/31 10:27:16;;;;;;;2.80;1.53;;;;;;;;;;5072054;28;20216;-53
2023/12/31 10:29:43;;;;;;;3.30;1.70;;;;;;;;;;5073013;28;20177;-52
2023/12/31 10:32:09;;;;;;;2.20;1.50;;;;;;;;;;5072930;28;20169;-54
2023/12/31 10:34:35;;;;;;;4.53;1.67;;;;;;;;;;5073053;28;20169;-54
2023/12/31 10:37:06;;;;;;;6.53;2.03;;;;;;;;;;5072986;28;20238;-55
2023/12/31 10:39:33;;;;;;;3.27;1.80;;;;;;;;;;5071634;28;20212;-55
2023/12/31 10:42:00;;;;;;;4.20;1.87;;;;;;;;;;5073188;28;20268;-55
2023/12/31 10:44:29;;;;;;;4.63;1.80;;;;;;;;;;5073240;28;20238;-55
2023/12/31 10:46:59;;;;;;;2.90;1.63;;;;;;;;;;5088838;28;20226;-54
2023/12/31 10:49:29;;;;;;;2.27;1.53;;;;;;;;;;5091384;28;20207;-53
2023/12/31 10:51:55;;;;;;;5.07;1.80;;;;;;;;;;5090103;28;20176;-52
2023/12/31 10:54:44;;;;;;;4.90;1.50;;;;;;;;;;5090977;28;20175;-56
2023/12/31 10:57:11;;;;;;;1.93;1.43;;;;;;;;;;5049485;28;20220;-52
2023/12/31 10:59:44;;;;;;;4.23;1.77;;;;;;;;;;5055808;28;20269;-51
2023/12/31 11:02:17;;;;;;;4.77;1.53;;;;;;;;;;5091768;28;20229;-50
2023/12/31 11:04:47;;;;;;;2.67;1.70;;;;;;;;;;5081063;28;20685;-54
2023/12/31 11:07:22;;;;;;;4.13;2.00;;;;;;;;;;5086867;28;20255;-54
2023/12/31 11:10:08;;;;;;;3.17;2.00;;;;;;;;;;5091826;28;20171;-53
2023/12/31 11:12:36;;;;;;;3.90;2.07;;;;;;;;;;5078651;28;20171;-55
2023/12/31 11:15:13;;;;;;;2.40;1.67;;;;;;;;;;5084998;28;20237;-54
2023/12/31 11:17:51;;;;;;;4.67;1.87;;;;;;;;;;5093713;28;20179;-53
2023/12/31 11:20:36;;;;;;;4.53;1.60;;;;;;;;;;5093143;28;20231;-50
2023/12/31 11:23:09;;;;;;;2.10;1.57;;;;;;;;;;5092182;28;20524;-56
2023/12/31 11:25:37;;;;;;;2.60;1.40;;;;;;;;;;5091541;28;20172;-49
2023/12/31 11:28:07;;;;;;;2.03;1.50;;;;;;;;;;5060336;28;20711;-54
2023/12/31 11:30:52;;;;;;;2.37;1.80;;;;;;;;;;5063785;28;20180;-54
2023/12/31 11:33:25;;;;;;;5.10;1.93;;;;;;;;;;5071328;28;20173;-51
2023/12/31 11:35:52;;;;;;;6.47;1.97;;;;;;;;;;5071050;28;20173;-52
2023/12/31 11:38:21;;;;;;;2.17;1.57;;;;;;;;;;5071229;28;20215;-51
2023/12/31 11:40:51;;;;;;;2.70;1.70;;;;;;;;;;5071432;28;20267;-53
2023/12/31 11:43:23;;;;;;;4.53;1.70;;;;;;;;;;5071655;28;20214;-50
2023/12/31 11:45:51;;;;;;;3.13;1.93;;;;;;;;;;5054616;28;20181;-54
2023/12/31 11:48:24;;;;;;;2.60;2.10;;;;;;;;;;5070126;28;20317;-52
2023/12/31 11:50:51;;;;;;;3.40;1.50;;;;;;;;;;5071468;28;20297;-55
2023/12/31 11:53:18;;;;;;;5.30;1.57;;;;;;;;;;5069992;28;20181;-54
2023/12/31 11:55:50;;;;;;;2.20;1.60;;;;;;;;;;5069019;28;20169;-55
2023/12/31 11:58:19;;;;;;;4.13;1.87;;;;;;;;;;5069117;28;20307;-55
2023/12/31 12:00:45;;;;;;;2.87;1.60;;;;;;;;;;5069273;28;20607;-54
2023/12/31 12:03:14;;;;;;;2.63;1.90;;;;;;;;;;5069343;28;20169;-52
2023/12/31 12:05:40;;;;;;;2.13;1.40;;;;;;;;;;5067578;28;20172;-53
2023/12/31 12:08:07;;;;;;;4.20;1.50;;;;;;;;;;5061880;28;20486;-52
2023/12/31 12:10:33;;;;;;;5.33;1.93;;;;;;;;;;5064599;28;20173;-55
2023/12/31 12:13:03;;;;;;;4.60;2.10;;;;;;;;;;5065219;28;20180;-56
2023/12/31 12:15:38;;;;;;;1.57;1.23;;;;;;;;;;5068939;28;20168;-52
2023/12/31 12:18:14;;;;;;;2.63;1.40;;;;;;;;;;5070539;28;20196;-56
2023/12/31 12:20:41;;;;;;;3.27;1.83;;;;;;;;;;5070792;28;20173;-54
2023/12/31 12:23:07;;;;;;;4.40;1.87;;;;;;;;;;5072916;28;20231;-53
2023/12/31 12:25:33;;;;;;;1.80;1.60;;;;;;;;;;5071844;28;20173;-56
2023/12/31 12:28:00;;;;;;;4.83;2.00;;;;;;;;;;5071846;28;20312;-51
2023/12/31 12:30:27;;;;;;;2.63;1.80;;;;;;;;;;5072358;28;20792;-55
2023/12/31 12:32:54;;;;;;;5.80;2.10;;;;;;;;;;5073830;28;20168;-54
2023/12/31 12:35:21;;;;;;;2.63;1.90;;;;;;;;;;5075059;28;20470;-56
2023/12/31 12:37:47;;;;;;;5.40;2.77;;;;;;;;;;5074456;28;20185;-56
2023/12/31 12:40:20;;;;;;;2.77;2.00;;;;;;;;;;5073062;28;20265;-55
2023/12/31 12:42:46;;;;;;;2.40;1.77;;;;;;;;;;5073822;28;20169;-56
2023/12/31 12:45:12;;;;;;;3.87;1.60;;;;;;;;;;5072683;28;20164;-49
2023/12/31 12:47:38;;;;;;;3.17;1.90;;;;;;;;;;5072745;28;20171;-54
2023/12/31 12:50:05;;;;;;;3.97;2.20;;;;;;;;;;5070275;28;20169;-54
2023/12/31 12:52:31;;;;;;;2.27;1.70;;;;;;;;;;5071026;28;20188;-54
2023/12/31 12:54:57;;;;;;;3.27;2.20;;;;;;;;;;5071727;28;20149;-54
2023/12/31 12:57:23;;;;;;;3.70;2.03;;;;;;;;;;5070306;28;20597;-54
2023/12/31 12:59:51;;;;;;;4.10;2.10;;;;;;;;;;5070141;28;20296;-55
2023/12/31 13:02:18;;;;;;;4.83;2.03;;;;;;;;;;5069314;28;20557;-56
2023/12/31 13:04:47;;;;;;;4.50;2.23;;;;;;;;;;5070491;28;20370;-55
2023/12/31 13:07:14;;;;;;;4.77;2.50;;;;;;;;;;5071344;28;20173;-52
2023/12/31 13:09:41;;;;;;;5.80;2.80;;;;;;;;;;5071016;28;20792;-55
2023/12/31 13:12:09;;;;;;;5.03;2.30;;;;;;;;;;5071128;28;20176;-54
2023/12/31 13:14:35;;;;;;;4.67;2.33;;;;;;;;;;5069702;28;20179;-53
2023/12/31 13:17:01;;;;;;;5.17;2.60;;;;;;;;;;5070414;28;20233;-52
2023/12/31 13:19:27;;;;;;;3.53;2.33;;;;;;;;;;5070716;28;20595;-52
2023/12/31 13:21:53;;;;;;;5.03;2.60;;;;;;;;;;5069576;28;20181;-52
2023/12/31 13:24:20;;;;;;;3.83;2.17;;;;;;;;;;5071367;28;20169;-50
2023/12/31 13:26:52;;;;;;;5.90;3.10;;;;;;;;;;5072585;28;20211;-53
2023/12/31 13:29:19;;;;;;;5.50;4.20;;;;;;;;;;5072241;28;20264;-57
2023/12/31 13:31:45;;;;;;;5.47;3.20;;;;;;;;;;5072309;28;20269;-55
2023/12/31 13:34:12;;;;;;;3.70;2.70;;;;;;;;;;5073141;28;20537;-52
2023/12/31 13:36:38;;;;;;;3.87;1.90;;;;;;;;;;5071294;28;20173;-55
2023/12/31 13:39:04;;;;;;;3.43;2.23;;;;;;;;;;5071655;28;20390;-54
2023/12/31 13:41:33;;;;;;;3.53;2.60;;;;;;;;;;5072478;28;20192;-54
2023/12/31 13:43:59;;;;;;;4.73;2.70;;;;;;;;;;5073040;28;20176;-56
2023/12/31 13:46:25;;;;;;;3.87;2.73;;;;;;;;;;5071139;28;20259;-51
2023/12/31 13:48:52;;;;;;;5.67;2.47;;;;;;;;;;5071671;28;20264;-53
2023/12/31 13:51:20;;;;;;;3.00;2.70;;;;;;;;;;5071353;28;20184;-55
2023/12/31 13:53:49;;;;;;;6.60;3.10;;;;;;;;;;5072034;28;20173;-55
2023/12/31 13:56:17;;;;;;;5.00;2.50;;;;;;;;;;5072391;28;20199;-50
2023/12/31 13:58:43;;;;;;;3.90;2.10;;;;;;;;;;5071375;28;20807;-56
2023/12/31 14:01:12;;;;;;;4.67;2.20;;;;;;;;;;5070969;28;20180;-54
2023/12/31 14:03:38;;;;;;;5.57;2.50;;;;;;;;;;5071722;28;20164;-56
2023/12/31 14:06:04;;;;;;;5.50;2.40;;;;;;;;;;5071536;28;20196;-54
2023/12/31 14:08:31;;;;;;;3.70;2.30;;;;;;;;;;5072126;28;20180;-52
2023/12/31 14:10:58;;;;;;;5.30;2.70;;;;;;;;;;5072027;28;20704;-56
2023/12/31 14:13:27;;;;;;;4.57;2.60;;;;;;;;;;5072349;28;20168;-55
2023/12/31 14:15:53;;;;;;;3.13;2.50;;;;;;;;;;5071330;28;20192;-50
2023/12/31 14:18:21;;;;;;;3.50;2.10;;;;;;;;;;5072452;28;20204;-56
2023/12/31 14:20:48;;;;;;;3.63;1.90;;;;;;;;;;5071685;28;20168;-56
2023/12/31 14:23:15;;;;;;;4.30;2.73;;;;;;;;;;5072545;28;20481;-54
2023/12/31 14:25:41;;;;;;;4.80;2.63;;;;;;;;;;5069788;28;20168;-56
2023/12/31 14:28:07;;;;;;;5.63;2.97;;;;;;;;;;5070960;28;20180;-54
2023/12/31 14:30:35;;;;;;;6.93;2.50;;;;;;;;;;5069050;28;20185;-54
2023/12/31 14:33:01;;;;;;;5.10;2.80;;;;;;;;;;5069507;28;20216;-54
2023/12/31 14:35:28;;;;;;;3.30;2.40;;;;;;;;;;5069899;28;20196;-54
2023/12/31 14:37:54;;;;;;;3.83;2.50;;;;;;;;;;5071220;28;20168;-56
2023/12/31 14:40:22;;;;;;;3.77;2.40;;;;;;;;;;5071848;28;20238;-56
2023/12/31 14:42:48;;;;;;;2.40;2.20;;;;;;;;;;5070261;28;20765;-54
2023/12/31 14:45:15;;;;;;;2.63;1.80;;;;;;;;;;5070439;28;20177;-56